Time;durP1;ratioP1;P1;durP2;ratioP2;P2;SDS_P1;SDS_P2;PMS_P1;PMS_P2;Temp;Humidity;BMP_temperature;BMP_pressure;BME280_temperature;BME280_humidity;BME280_pressure;Samples;Min_cycle;Max_cycle;Signal;HPM_P1;HPM_P2
2022/07/01 00:00:11;;;;;;;;;;;14.80;98.80;;;;;;5072615;28;19962;-58
2022/07/01 00:02:36;;;;;;;;;;;14.70;98.80;;;;;;5072341;28;19991;-59
2022/07/01 00:05:02;;;;;;;;;;;14.70;98.50;;;;;;5072811;28;19924;-59
2022/07/01 00:07:27;;;;;;;;;;;14.70;98.40;;;;;;5072345;28;19908;-60
2022/07/01 00:09:53;;;;;;;;;;;14.70;98.70;;;;;;5069048;28;19967;-59
2022/07/01 00:12:19;;;;;;;;;;;14.70;98.60;;;;;;5069328;28;20304;-59
2022/07/01 00:14:44;;;;;;;;;;;14.70;98.40;;;;;;5071669;28;19916;-59
2022/07/01 00:17:10;;;;;;;;;;;14.70;98.40;;;;;;5072388;28;20293;-58
2022/07/01 00:19:35;;;;;;;;;;;14.70;99.10;;;;;;5072602;28;19915;-59
2022/07/01 00:22:01;;;;;;;;;;;14.60;98.90;;;;;;5072257;28;19956;-59
2022/07/01 00:24:27;;;;;;;;;;;14.60;98.90;;;;;;5071850;28;20083;-60
2022/07/01 00:26:53;;;;;;;;;;;14.60;99.20;;;;;;5072416;28;19916;-58
2022/07/01 00:29:18;;;;;;;;;;;14.60;99.60;;;;;;5071975;28;19916;-58
2022/07/01 00:31:44;;;;;;;;;;;14.50;99.60;;;;;;5071411;28;20367;-60
2022/07/01 00:34:09;;;;;;;;;;;14.50;99.20;;;;;;5072151;28;20238;-58
2022/07/01 00:36:34;;;;;;;;;;;14.50;99.30;;;;;;5071854;28;19962;-58
2022/07/01 00:39:00;;;;;;;;;;;14.50;99.40;;;;;;5071915;28;19954;-58
2022/07/01 00:41:26;;;;;;;;;;;14.50;99.80;;;;;;5071547;28;19909;-60
2022/07/01 00:43:51;;;;;;;;;;;14.40;99.60;;;;;;5071719;28;19961;-60
2022/07/01 00:46:17;;;;;;;;;;;14.40;99.90;;;;;;5071461;28;19924;-61
2022/07/01 00:48:43;;;;;;;;;;;14.40;99.90;;;;;;5068963;28;19931;-59
2022/07/01 00:51:09;;;;;;;;;;;14.40;99.90;;;;;;5072195;28;19991;-61
2022/07/01 00:53:35;;;;;;;;;;;14.40;99.90;;;;;;5071395;28;19915;-61
2022/07/01 00:56:01;;;;;;;;;;;14.30;99.90;;;;;;5071010;28;19917;-64
2022/07/01 00:58:28;;;;;;;;;;;14.30;99.90;;;;;;5071140;28;19909;-61
2022/07/01 01:00:54;;;;;;;;;;;14.30;99.90;;;;;;5071608;28;19908;-61
2022/07/01 01:03:19;;;;;;;;;;;14.30;99.90;;;;;;5071826;28;19908;-61
2022/07/01 01:05:45;;;;;;;;;;;14.30;99.90;;;;;;5070821;28;20387;-60
2022/07/01 01:08:11;;;;;;;;;;;14.30;99.90;;;;;;5070434;28;19909;-58
2022/07/01 01:10:36;;;;;;;;;;;14.30;99.90;;;;;;5071150;28;19962;-61
2022/07/01 01:13:02;;;;;;;;;;;14.20;99.90;;;;;;5070791;28;20292;-60
2022/07/01 01:15:29;;;;;;;;;;;14.20;99.90;;;;;;5071214;28;20411;-60
2022/07/01 01:17:54;;;;;;;;;;;14.20;99.90;;;;;;5071221;28;19909;-60
2022/07/01 01:20:20;;;;;;;;;;;14.20;99.90;;;;;;5071699;28;20348;-60
2022/07/01 01:22:46;;;;;;;;;;;14.10;99.90;;;;;;5071234;28;19909;-58
2022/07/01 01:25:12;;;;;;;;;;;14.10;99.90;;;;;;5071095;28;19915;-59
2022/07/01 01:27:38;;;;;;;;;;;14.10;99.90;;;;;;5063934;28;20003;-60
2022/07/01 01:30:05;;;;;;;;;;;14.00;99.90;;;;;;5071347;28;19940;-58
2022/07/01 01:32:30;;;;;;;;;;;14.00;99.90;;;;;;5070838;28;20409;-60
2022/07/01 01:34:56;;;;;;;;;;;14.00;99.90;;;;;;5070891;28;20418;-61
2022/07/01 01:37:21;;;;;;;;;;;14.00;99.90;;;;;;5071190;28;19948;-60
2022/07/01 01:39:47;;;;;;;;;;;14.00;99.90;;;;;;5071347;28;19908;-60
2022/07/01 01:42:12;;;;;;;;;;;14.00;99.90;;;;;;5070547;28;20364;-60
2022/07/01 01:44:37;;;;;;;;;;;13.90;99.90;;;;;;5071021;28;19957;-60
2022/07/01 01:47:03;;;;;;;;;;;14.00;99.90;;;;;;5070418;28;20415;-60
2022/07/01 01:49:29;;;;;;;;;;;13.90;99.90;;;;;;5070683;28;19917;-60
2022/07/01 01:51:56;;;;;;;;;;;14.00;99.90;;;;;;5071019;28;19908;-61
2022/07/01 01:54:21;;;;;;;;;;;13.90;99.90;;;;;;5070306;28;19916;-60
2022/07/01 01:56:47;;;;;;;;;;;13.90;99.90;;;;;;5070414;28;20007;-60
2022/07/01 01:59:12;;;;;;;;;;;13.90;99.90;;;;;;5070932;28;20678;-58
2022/07/01 02:01:38;;;;;;;;;;;13.90;99.90;;;;;;5070769;28;19948;-60
2022/07/01 02:04:03;;;;;;;;;;;13.90;99.90;;;;;;5070703;28;19912;-60
2022/07/01 02:06:29;;;;;;;;;;;13.80;99.90;;;;;;5064370;28;19957;-59
2022/07/01 02:08:55;;;;;;;;;;;13.80;99.90;;;;;;5074573;28;20357;-59
2022/07/01 02:11:20;;;;;;;;;;;13.80;99.90;;;;;;5074717;28;19908;-60
2022/07/01 02:13:46;;;;;;;;;;;13.80;99.90;;;;;;5074377;28;19916;-60
2022/07/01 02:16:11;;;;;;;;;;;13.80;99.90;;;;;;5074771;28;19924;-59
2022/07/01 02:18:37;;;;;;;;;;;13.80;99.90;;;;;;5056391;28;20320;-61
2022/07/01 02:21:02;;;;;;;;;;;13.80;99.90;;;;;;5073353;28;19908;-60
2022/07/01 02:23:29;;;;;;;;;;;13.80;99.90;;;;;;5074016;28;20019;-59
2022/07/01 02:25:54;;;;;;;;;;;13.70;99.90;;;;;;5073874;28;20010;-60
2022/07/01 02:28:20;;;;;;;;;;;13.70;99.90;;;;;;5074150;28;20486;-60
2022/07/01 02:30:45;;;;;;;;;;;13.70;99.90;;;;;;5070655;28;19912;-60
2022/07/01 02:33:11;;;;;;;;;;;13.70;99.90;;;;;;5068724;28;19928;-60
2022/07/01 02:35:37;;;;;;;;;;;13.70;99.90;;;;;;5073737;28;19921;-60
2022/07/01 02:38:04;;;;;;;;;;;13.70;99.90;;;;;;5073582;28;19913;-60
2022/07/01 02:40:29;;;;;;;;;;;13.70;99.90;;;;;;5074253;28;19920;-60
2022/07/01 02:42:55;;;;;;;;;;;13.70;99.90;;;;;;5073877;28;19915;-61
2022/07/01 02:45:21;;;;;;;;;;;13.70;99.90;;;;;;5055479;28;19908;-59
2022/07/01 02:47:46;;;;;;;;;;;13.70;99.90;;;;;;5067336;28;19924;-60
2022/07/01 02:50:12;;;;;;;;;;;13.70;99.90;;;;;;5073928;28;19916;-60
2022/07/01 02:52:39;;;;;;;;;;;13.70;99.90;;;;;;5073598;28;19908;-60
2022/07/01 02:55:05;;;;;;;;;;;13.60;99.90;;;;;;5073413;28;20014;-61
2022/07/01 02:57:31;;;;;;;;;;;13.60;99.90;;;;;;5073859;28;19909;-61
2022/07/01 02:59:57;;;;;;;;;;;13.60;99.90;;;;;;5071948;28;20030;-60
2022/07/01 03:02:23;;;;;;;;;;;13.60;99.90;;;;;;5073824;28;19916;-61
2022/07/01 03:05:05;;;;;;;;;;;13.60;99.90;;;;;;5072221;28;20527;-60
2022/07/01 03:07:30;;;;;;;;;;;13.60;99.90;;;;;;5070581;28;19928;-58
2022/07/01 03:09:56;;;;;;;;;;;13.60;99.90;;;;;;5066673;28;19916;-59
2022/07/01 03:12:24;;;;;;;;;;;13.60;99.90;;;;;;5074177;28;19915;-59
2022/07/01 03:14:54;;;;;;;;;;;13.60;99.90;;;;;;5055379;28;19916;-61
2022/07/01 03:17:20;;;;;;;;;;;13.50;99.90;;;;;;5073364;28;19912;-60
2022/07/01 03:19:46;;;;;;;;;;;13.50;99.90;;;;;;5072327;28;20330;-60
2022/07/01 03:22:12;;;;;;;;;;;13.50;99.90;;;;;;5073105;28;19908;-60
2022/07/01 03:24:37;;;;;;;;;;;13.50;99.90;;;;;;5072521;28;19924;-60
2022/07/01 03:27:03;;;;;;;;;;;13.60;99.90;;;;;;5073587;28;20440;-60
2022/07/01 03:29:28;;;;;;;;;;;13.60;99.90;;;;;;5073543;28;19912;-60
2022/07/01 03:31:54;;;;;;;;;;;13.60;99.90;;;;;;5073209;28;19912;-59
2022/07/01 03:34:19;;;;;;;;;;;13.60;99.90;;;;;;5073225;28;20300;-59
2022/07/01 03:36:45;;;;;;;;;;;13.60;99.90;;;;;;5073492;28;19966;-59
2022/07/01 03:39:10;;;;;;;;;;;13.60;99.90;;;;;;5072518;28;20301;-60
2022/07/01 03:41:35;;;;;;;;;;;13.60;99.90;;;;;;5072429;28;19912;-59
2022/07/01 03:44:01;;;;;;;;;;;13.50;99.90;;;;;;5071996;28;20334;-59
2022/07/01 03:46:31;;;;;;;;;;;13.50;99.90;;;;;;5073105;28;19924;-59
2022/07/01 03:48:57;;;;;;;;;;;13.50;99.90;;;;;;5072696;28;19915;-60
2022/07/01 03:51:22;;;;;;;;;;;13.50;99.90;;;;;;5072615;28;19916;-60
2022/07/01 03:56:32;;;;;;;;;;;13.50;99.90;;;;;;5072949;28;20419;-60
2022/07/01 03:58:57;;;;;;;;;;;13.50;99.90;;;;;;5072121;28;19909;-59
2022/07/01 04:01:23;;;;;;;;;;;13.60;99.90;;;;;;5072654;28;19912;-59
2022/07/01 04:03:48;;;;;;;;;;;13.50;99.90;;;;;;5072416;28;19970;-59
2022/07/01 04:06:14;;;;;;;;;;;13.50;99.90;;;;;;5072310;28;19913;-60
2022/07/01 04:08:39;;;;;;;;;;;13.50;99.90;;;;;;5072221;28;19908;-60
2022/07/01 04:11:08;;;;;;;;;;;13.60;99.90;;;;;;5072018;28;19916;-60
2022/07/01 04:13:34;;;;;;;;;;;13.60;99.90;;;;;;5065990;28;19962;-60
2022/07/01 04:16:00;;;;;;;;;;;13.60;99.90;;;;;;5072580;28;19920;-59
2022/07/01 04:18:26;;;;;;;;;;;13.60;99.90;;;;;;5072296;28;19916;-59
2022/07/01 04:23:37;;;;;;;;;;;13.60;99.90;;;;;;4985273;28;19935;-60
2022/07/01 04:26:03;;;;;;;;;;;13.60;99.90;;;;;;4990299;28;19910;-59
2022/07/01 04:28:28;;;;;;;;;;;13.60;99.90;;;;;;4990614;28;19920;-59
2022/07/01 04:30:54;;;;;;;;;;;13.60;99.90;;;;;;4974628;28;20535;-60
2022/07/01 04:33:19;;;;;;;;;;;13.60;99.90;;;;;;4990241;28;19989;-60
2022/07/01 04:35:45;;;;;;;;;;;13.70;99.90;;;;;;4989906;28;20291;-60
2022/07/01 04:38:10;;;;;;;;;;;13.70;99.90;;;;;;4990609;28;19914;-60
2022/07/01 04:40:36;;;;;;;;;;;13.70;99.90;;;;;;4990332;28;20286;-59
2022/07/01 04:43:01;;;;;;;;;;;13.70;99.90;;;;;;4984387;28;19964;-60
2022/07/01 04:45:27;;;;;;;;;;;13.80;99.90;;;;;;4989131;28;19996;-59
2022/07/01 04:47:52;;;;;;;;;;;13.70;99.90;;;;;;4989948;28;20283;-59
2022/07/01 04:50:18;;;;;;;;;;;13.80;99.90;;;;;;4989933;28;20397;-60
2022/07/01 04:52:43;;;;;;;;;;;13.80;99.90;;;;;;4989912;28;19952;-59
2022/07/01 04:55:09;;;;;;;;;;;13.80;99.90;;;;;;4986478;28;20485;-60
2022/07/01 04:57:34;;;;;;;;;;;13.80;99.90;;;;;;4988132;28;19966;-60
2022/07/01 04:59:59;;;;;;;;;;;13.80;99.90;;;;;;5005844;28;20468;-57
2022/07/01 05:02:25;;;;;;;;;;;13.90;99.90;;;;;;5071366;28;19917;-60
2022/07/01 05:04:51;;;;;;;;;;;13.90;99.90;;;;;;5070994;28;19913;-60
2022/07/01 05:07:28;;;;;;;;;;;13.90;99.90;;;;;;5070890;28;20006;-60
2022/07/01 05:09:54;;;;;;;;;;;13.90;99.90;;;;;;5071134;28;19955;-61
2022/07/01 05:12:20;;;;;;;;;;;13.90;99.90;;;;;;5070911;28;20711;-59
2022/07/01 05:14:46;;;;;;;;;;;13.90;99.90;;;;;;5065201;28;19921;-59
2022/07/01 05:17:11;;;;;;;;;;;14.00;99.90;;;;;;5071326;28;20054;-59
2022/07/01 05:22:20;;;;;;;;;;;14.10;99.90;;;;;;5070868;28;19915;-60
2022/07/01 05:24:46;;;;;;;;;;;14.10;99.90;;;;;;5066669;28;19916;-60
2022/07/01 05:27:11;;;;;;;;;;;14.20;99.90;;;;;;5069109;28;19912;-58
2022/07/01 05:29:37;;;;;;;;;;;14.30;99.90;;;;;;5070842;28;20284;-60
2022/07/01 05:32:02;;;;;;;;;;;14.30;99.90;;;;;;5071222;28;19916;-60
2022/07/01 05:34:28;;;;;;;;;;;14.30;99.90;;;;;;5070406;28;19922;-59
2022/07/01 05:36:54;;;;;;;;;;;14.30;99.90;;;;;;5070862;28;20288;-59
2022/07/01 05:39:19;;;;;;;;;;;14.30;99.90;;;;;;5071092;28;19999;-59
2022/07/01 05:41:45;;;;;;;;;;;14.30;99.90;;;;;;5070457;28;19908;-59
2022/07/01 05:44:11;;;;;;;;;;;14.40;99.90;;;;;;5070900;28;19966;-59
2022/07/01 05:46:36;;;;;;;;;;;14.40;99.90;;;;;;5052148;28;19929;-59
2022/07/01 05:49:02;;;;;;;;;;;14.40;99.90;;;;;;5070634;28;19958;-60
2022/07/01 05:51:28;;;;;;;;;;;14.40;99.90;;;;;;5071328;28;20004;-60
2022/07/01 05:53:53;;;;;;;;;;;14.50;99.90;;;;;;5070272;28;20332;-59
2022/07/01 05:56:20;;;;;;;;;;;14.50;99.90;;;;;;5070534;28;19916;-58
2022/07/01 05:58:45;;;;;;;;;;;14.60;99.90;;;;;;5070721;28;19912;-57
2022/07/01 06:01:11;;;;;;;;;;;14.70;99.90;;;;;;5079806;28;19912;-60
2022/07/01 06:03:37;;;;;;;;;;;14.70;99.90;;;;;;5065796;28;20408;-59
2022/07/01 06:06:02;;;;;;;;;;;14.70;99.90;;;;;;5070469;28;19913;-66
2022/07/01 06:08:28;;;;;;;;;;;14.70;99.90;;;;;;5071016;28;19913;-68
2022/07/01 06:10:53;;;;;;;;;;;14.80;99.90;;;;;;5070769;28;19959;-68
2022/07/01 06:13:19;;;;;;;;;;;14.90;99.90;;;;;;5068516;28;20376;-67
2022/07/01 06:15:44;;;;;;;;;;;14.90;99.90;;;;;;5070593;28;19952;-67
2022/07/01 06:18:10;;;;;;;;;;;15.00;99.90;;;;;;5070032;28;19916;-68
2022/07/01 06:20:35;;;;;;;;;;;15.00;99.90;;;;;;5070397;28;20395;-66
2022/07/01 06:23:01;;;;;;;;;;;15.00;99.90;;;;;;5070286;28;20387;-67
2022/07/01 06:25:26;;;;;;;;;;;15.00;99.90;;;;;;5071100;28;19913;-66
2022/07/01 06:27:52;;;;;;;;;;;15.10;99.90;;;;;;5070334;28;19913;-67
2022/07/01 06:30:17;;;;;;;;;;;15.20;99.90;;;;;;5070238;28;19908;-66
2022/07/01 06:32:43;;;;;;;;;;;15.20;99.90;;;;;;5073943;28;19970;-65
2022/07/01 06:35:08;;;;;;;;;;;15.20;99.90;;;;;;5075952;28;19917;-65
2022/07/01 06:37:35;;;;;;;;;;;15.20;99.90;;;;;;5078843;28;19916;-66
2022/07/01 06:40:04;;;;;;;;;;;15.30;99.90;;;;;;5068969;28;19944;-66
2022/07/01 06:42:30;;;;;;;;;;;15.30;99.90;;;;;;5074032;28;19971;-66
2022/07/01 06:44:56;;;;;;;;;;;15.40;99.90;;;;;;5063383;28;20373;-65
2022/07/01 06:47:21;;;;;;;;;;;15.40;99.90;;;;;;5073886;28;19954;-67
2022/07/01 06:49:48;;;;;;;;;;;15.40;99.90;;;;;;5070377;28;20439;-66
2022/07/01 06:52:13;;;;;;;;;;;15.40;99.90;;;;;;5072547;28;19936;-64
2022/07/01 06:54:39;;;;;;;;;;;15.40;99.90;;;;;;5077480;28;20514;-64
2022/07/01 06:57:05;;;;;;;;;;;15.50;99.80;;;;;;5067775;28;19995;-66
2022/07/01 06:59:30;;;;;;;;;;;15.50;99.90;;;;;;5074205;28;19978;-56
2022/07/01 07:01:56;;;;;;;;;;;15.40;98.80;;;;;;5073378;28;19908;-58
2022/07/01 07:04:21;;;;;;;;;;;15.40;98.80;;;;;;5074046;28;20356;-58
2022/07/01 07:06:47;;;;;;;;;;;15.30;98.50;;;;;;5073980;28;19909;-59
2022/07/01 07:09:12;;;;;;;;;;;15.30;98.50;;;;;;5073713;28;19999;-59
2022/07/01 07:11:38;;;;;;;;;;;15.30;98.40;;;;;;5073749;28;19916;-57
2022/07/01 07:14:03;;;;;;;;;;;15.30;98.60;;;;;;5073456;28;19908;-59
2022/07/01 07:16:29;;;;;;;;;;;15.40;98.80;;;;;;5073151;28;20058;-58
2022/07/01 07:18:54;;;;;;;;;;;15.40;98.50;;;;;;5073543;28;19935;-56
2022/07/01 07:21:20;;;;;;;;;;;15.50;98.00;;;;;;5073601;28;19908;-58
2022/07/01 07:23:45;;;;;;;;;;;15.40;97.80;;;;;;5066923;28;20296;-58
2022/07/01 07:26:11;;;;;;;;;;;15.50;98.20;;;;;;5073462;28;19958;-59
2022/07/01 07:28:36;;;;;;;;;;;15.50;98.20;;;;;;5042178;28;20353;-59
2022/07/01 07:31:02;;;;;;;;;;;15.50;98.00;;;;;;5073180;28;19912;-58
2022/07/01 07:33:28;;;;;;;;;;;15.50;97.80;;;;;;5072920;28;19915;-59
2022/07/01 07:35:53;;;;;;;;;;;15.60;98.00;;;;;;5072886;28;19967;-59
2022/07/01 07:38:19;;;;;;;;;;;15.60;97.60;;;;;;5073545;28;19919;-58
2022/07/01 07:40:45;;;;;;;;;;;15.70;97.20;;;;;;5072844;28;20110;-59
2022/07/01 07:43:10;;;;;;;;;;;15.70;97.60;;;;;;5072928;28;19915;-59
2022/07/01 07:45:36;;;;;;;;;;;15.80;96.90;;;;;;5073163;28;19916;-59
2022/07/01 07:48:02;;;;;;;;;;;15.80;96.70;;;;;;5072592;28;20429;-59
2022/07/01 07:50:28;;;;;;;;;;;15.80;96.70;;;;;;5072907;28;19908;-59
2022/07/01 07:52:53;;;;;;;;;;;15.80;96.90;;;;;;5073114;28;19931;-59
2022/07/01 07:55:19;;;;;;;;;;;15.80;96.30;;;;;;5072533;28;19960;-59
2022/07/01 07:57:44;;;;;;;;;;;15.90;96.50;;;;;;5072412;28;19944;-57
2022/07/01 08:00:11;;;;;;;;;;;15.90;96.20;;;;;;5072422;28;19916;-59
2022/07/01 08:02:37;;;;;;;;;;;15.90;96.30;;;;;;5067745;28;19916;-59
2022/07/01 08:05:03;;;;;;;;;;;16.00;96.40;;;;;;5069972;28;20257;-59
2022/07/01 08:07:28;;;;;;;;;;;16.10;95.80;;;;;;5072576;28;19944;-59
2022/07/01 08:09:55;;;;;;;;;;;16.10;96.00;;;;;;5072669;28;19961;-59
2022/07/01 08:12:21;;;;;;;;;;;16.10;95.60;;;;;;5072647;28;19999;-59
2022/07/01 08:14:47;;;;;;;;;;;16.20;95.80;;;;;;5071642;28;19920;-58
2022/07/01 08:17:12;;;;;;;;;;;16.20;95.10;;;;;;5072502;28;19913;-59
2022/07/01 08:19:38;;;;;;;;;;;16.20;94.90;;;;;;5072828;28;20411;-58
2022/07/01 08:22:03;;;;;;;;;;;16.20;94.50;;;;;;5072502;28;19916;-58
2022/07/01 08:24:29;;;;;;;;;;;16.20;93.60;;;;;;5072242;28;20001;-59
2022/07/01 08:26:54;;;;;;;;;;;16.30;94.20;;;;;;5072308;28;19909;-58
2022/07/01 08:29:20;;;;;;;;;;;16.30;93.60;;;;;;5071478;28;19908;-59
2022/07/01 08:31:45;;;;;;;;;;;16.30;93.50;;;;;;5071924;28;19915;-58
2022/07/01 08:34:11;;;;;;;;;;;16.40;93.50;;;;;;5071945;28;19997;-59
2022/07/01 08:36:36;;;;;;;;;;;16.40;93.40;;;;;;5071999;28;19920;-58
2022/07/01 08:39:03;;;;;;;;;;;16.40;93.30;;;;;;5072522;28;19909;-59
2022/07/01 08:41:28;;;;;;;;;;;16.40;92.90;;;;;;5058711;28;19919;-58
2022/07/01 08:43:54;;;;;;;;;;;16.50;92.80;;;;;;5071601;28;20015;-59
2022/07/01 08:46:21;;;;;;;;;;;16.60;93.50;;;;;;5071551;28;19924;-58
2022/07/01 08:48:46;;;;;;;;;;;16.60;93.30;;;;;;5072207;28;19908;-58
2022/07/01 08:51:12;;;;;;;;;;;16.70;92.90;;;;;;5071547;28;19923;-58
2022/07/01 08:53:37;;;;;;;;;;;16.80;92.70;;;;;;5071656;28;19942;-59
2022/07/01 08:58:50;;;;;;;;;;;16.90;93.40;;;;;;5072310;28;19996;-59
2022/07/01 09:01:17;;;;;;;;;;;17.00;92.80;;;;;;5071792;28;19916;-57
2022/07/01 09:03:43;;;;;;;;;;;17.00;93.00;;;;;;5071591;28;19955;-58
2022/07/01 09:06:16;;;;;;;;;;;17.10;93.00;;;;;;5064972;28;19908;-58
2022/07/01 09:08:42;;;;;;;;;;;17.10;93.00;;;;;;5064123;28;19955;-57
2022/07/01 09:11:18;;;;;;;;;;;17.20;93.30;;;;;;5071456;28;19912;-59
2022/07/01 09:13:44;;;;;;;;;;;17.30;93.40;;;;;;5071547;28;19916;-59
2022/07/01 09:16:11;;;;;;;;;;;17.40;93.60;;;;;;5066819;28;19916;-58
2022/07/01 09:18:37;;;;;;;;;;;17.50;92.90;;;;;;5070339;28;20003;-59
2022/07/01 09:21:07;;;;;;;;;;;17.60;92.40;;;;;;5066051;28;20003;-59
2022/07/01 09:23:33;;;;;;;;;;;17.60;93.00;;;;;;5071213;28;19909;-59
2022/07/01 09:25:58;;;;;;;;;;;17.60;92.80;;;;;;5070503;28;19908;-60
2022/07/01 09:28:25;;;;;;;;;;;17.70;92.50;;;;;;5065341;28;19908;-59
2022/07/01 09:30:53;;;;;;;;;;;17.80;92.70;;;;;;5069865;28;20003;-59
2022/07/01 09:33:23;;;;;;;;;;;17.80;92.50;;;;;;5071601;28;19908;-58
2022/07/01 09:35:49;;;;;;;;;;;17.90;92.70;;;;;;5052597;28;20296;-59
2022/07/01 09:38:17;;;;;;;;;;;18.00;92.20;;;;;;5070400;28;21338;-59
2022/07/01 09:40:51;;;;;;;;;;;18.00;92.10;;;;;;5070514;28;19912;-59
2022/07/01 09:43:16;;;;;;;;;;;18.10;91.90;;;;;;5071439;28;20331;-55
2022/07/01 09:45:57;;;;;;;;;;;18.20;92.50;;;;;;5070987;28;19916;-59
2022/07/01 09:48:24;;;;;;;;;;;18.30;92.50;;;;;;5070737;28;19920;-59
2022/07/01 09:50:50;;;;;;;;;;;18.50;92.00;;;;;;5071451;28;19908;-59
2022/07/01 09:53:16;;;;;;;;;;;18.60;91.90;;;;;;5071106;28;19962;-59
2022/07/01 09:55:41;;;;;;;;;;;18.70;91.10;;;;;;5070357;28;19917;-58
2022/07/01 09:58:07;;;;;;;;;;;18.60;90.40;;;;;;5064216;28;20003;-59
2022/07/01 10:00:35;;;;;;;;;;;18.60;90.70;;;;;;5070774;28;19912;-59
2022/07/01 10:03:01;;;;;;;;;;;18.60;90.60;;;;;;5071091;28;19916;-58
2022/07/01 10:05:27;;;;;;;;;;;18.60;90.70;;;;;;5070704;28;19912;-59
2022/07/01 10:08:11;;;;;;;;;;;18.60;90.50;;;;;;5070947;28;19915;-58
2022/07/01 10:10:42;;;;;;;;;;;18.60;90.30;;;;;;5069931;28;20377;-58
2022/07/01 10:13:09;;;;;;;;;;;18.60;90.50;;;;;;5070434;28;20480;-59
2022/07/01 10:15:35;;;;;;;;;;;18.80;90.60;;;;;;5070355;28;19947;-58
2022/07/01 10:18:00;;;;;;;;;;;18.80;90.90;;;;;;5070506;28;19916;-59
2022/07/01 10:20:27;;;;;;;;;;;18.90;90.70;;;;;;5070242;28;20375;-59
2022/07/01 10:23:06;;;;;;;;;;;19.00;90.60;;;;;;5070327;28;19909;-59
2022/07/01 10:25:31;;;;;;;;;;;19.10;90.20;;;;;;5070340;28;19909;-58
2022/07/01 10:28:16;;;;;;;;;;;19.20;88.70;;;;;;5071255;28;19915;-58
2022/07/01 10:31:01;;;;;;;;;;;19.20;89.10;;;;;;5074279;28;20563;-58
2022/07/01 10:33:33;;;;;;;;;;;19.30;87.60;;;;;;5070813;28;19913;-58
2022/07/01 10:36:06;;;;;;;;;;;19.40;89.20;;;;;;5073958;28;20023;-58
2022/07/01 10:38:31;;;;;;;;;;;19.40;88.20;;;;;;5069510;28;20392;-59
2022/07/01 10:41:09;;;;;;;;;;;19.50;88.40;;;;;;5073652;28;20147;-58
2022/07/01 10:43:37;;;;;;;;;;;19.50;88.40;;;;;;5074106;28;20309;-58
2022/07/01 10:46:03;;;;;;;;;;;19.60;86.90;;;;;;5055859;28;19935;-58
2022/07/01 10:48:33;;;;;;;;;;;19.50;86.00;;;;;;5073342;28;19915;-58
2022/07/01 10:50:58;;;;;;;;;;;19.60;87.80;;;;;;5073908;28;19912;-59
2022/07/01 10:53:24;;;;;;;;;;;19.60;86.40;;;;;;5070526;28;19916;-58
2022/07/01 10:55:50;;;;;;;;;;;19.70;87.60;;;;;;5069828;28;19942;-59
2022/07/01 10:58:18;;;;;;;;;;;19.70;87.10;;;;;;5073906;28;19915;-58
2022/07/01 11:00:45;;;;;;;;;;;19.70;85.40;;;;;;5068870;28;19956;-59
2022/07/01 11:03:15;;;;;;;;;;;19.60;83.60;;;;;;5073758;28;20345;-58
2022/07/01 11:05:41;;;;;;;;;;;19.50;84.50;;;;;;5071375;28;19916;-58
2022/07/01 11:08:07;;;;;;;;;;;19.50;84.40;;;;;;5072877;28;19915;-58
2022/07/01 11:10:33;;;;;;;;;;;19.60;85.20;;;;;;5073247;28;19917;-58
2022/07/01 11:12:59;;;;;;;;;;;19.70;85.30;;;;;;5073403;28;19909;-58
2022/07/01 11:15:26;;;;;;;;;;;19.80;85.30;;;;;;5070677;28;20010;-59
2022/07/01 11:17:51;;;;;;;;;;;19.90;85.90;;;;;;5055286;28;19976;-58
2022/07/01 11:20:17;;;;;;;;;;;20.00;85.60;;;;;;5073276;28;20377;-59
2022/07/01 11:22:42;;;;;;;;;;;20.10;85.30;;;;;;5073046;28;19919;-59
2022/07/01 11:25:09;;;;;;;;;;;20.10;83.50;;;;;;5073470;28;19919;-58
2022/07/01 11:27:35;;;;;;;;;;;20.20;83.90;;;;;;5073283;28;19908;-58
2022/07/01 11:30:04;;;;;;;;;;;20.30;84.30;;;;;;5073038;28;20285;-58
2022/07/01 11:32:34;;;;;;;;;;;20.40;83.30;;;;;;5066573;28;19908;-59
2022/07/01 11:35:00;;;;;;;;;;;20.30;82.00;;;;;;5054449;28;20361;-58
2022/07/01 11:40:17;;;;;;;;;;;20.10;80.80;;;;;;5073027;28;19934;-58
2022/07/01 11:42:43;;;;;;;;;;;20.10;81.40;;;;;;5072534;28;19913;-58
2022/07/01 11:45:08;;;;;;;;;;;20.20;82.30;;;;;;5072690;28;19916;-58
2022/07/01 11:47:34;;;;;;;;;;;20.30;81.10;;;;;;5072342;28;19932;-60
2022/07/01 11:50:00;;;;;;;;;;;20.50;81.80;;;;;;5072913;28;19909;-59
2022/07/01 11:52:26;;;;;;;;;;;20.60;82.30;;;;;;5072120;28;19915;-58
2022/07/01 11:54:55;;;;;;;;;;;20.70;80.30;;;;;;5072222;28;19973;-59
2022/07/01 11:57:22;;;;;;;;;;;20.60;79.20;;;;;;5072776;28;19909;-58
2022/07/01 11:59:48;;;;;;;;;;;20.50;80.40;;;;;;5072117;28;19909;-59
2022/07/01 12:02:14;;;;;;;;;;;20.60;79.10;;;;;;5072662;28;20648;-59
2022/07/01 12:04:40;;;;;;;;;;;20.50;79.90;;;;;;5071668;28;19947;-59
2022/07/01 12:07:06;;;;;;;;;;;20.60;79.70;;;;;;5072194;28;19962;-59
2022/07/01 12:09:32;;;;;;;;;;;20.60;79.30;;;;;;5072370;28;19920;-59
2022/07/01 12:11:58;;;;;;;;;;;20.60;80.00;;;;;;5072686;28;19913;-59
2022/07/01 12:14:31;;;;;;;;;;;20.70;80.60;;;;;;5072043;28;20050;-59
2022/07/01 12:16:57;;;;;;;;;;;20.80;79.50;;;;;;5066845;28;20050;-59
2022/07/01 12:19:27;;;;;;;;;;;20.90;79.40;;;;;;5072026;28;20391;-57
2022/07/01 12:21:54;;;;;;;;;;;20.90;77.00;;;;;;5072533;28;19908;-58
2022/07/01 12:24:23;;;;;;;;;;;20.80;78.00;;;;;;5072610;28;19935;-58
2022/07/01 12:26:51;;;;;;;;;;;20.80;77.20;;;;;;5071444;28;20371;-57
2022/07/01 12:29:20;;;;;;;;;;;20.80;77.10;;;;;;5071913;28;20331;-57
2022/07/01 12:32:00;;;;;;;;;;;20.80;77.20;;;;;;5071750;28;19919;-58
2022/07/01 12:34:39;;;;;;;;;;;20.90;75.80;;;;;;5071153;28;19931;-59
2022/07/01 12:37:09;;;;;;;;;;;20.90;76.00;;;;;;5070552;28;20349;-59
2022/07/01 12:39:41;;;;;;;;;;;20.90;75.30;;;;;;5067528;28;19962;-59
2022/07/01 12:42:06;;;;;;;;;;;20.90;75.60;;;;;;5070037;28;20274;-58
2022/07/01 12:44:32;;;;;;;;;;;20.90;75.50;;;;;;5061111;28;19923;-60
2022/07/01 12:46:57;;;;;;;;;;;20.90;75.20;;;;;;5068347;28;19924;-58
2022/07/01 12:49:24;;;;;;;;;;;21.00;75.30;;;;;;5072072;28;20288;-57
2022/07/01 12:51:50;;;;;;;;;;;21.00;76.40;;;;;;5066479;28;19916;-58
2022/07/01 12:54:30;;;;;;;;;;;21.20;76.40;;;;;;5069442;28;19916;-57
2022/07/01 12:56:55;;;;;;;;;;;21.30;75.70;;;;;;5067752;28;19925;-58
2022/07/01 12:59:21;;;;;;;;;;;21.40;76.20;;;;;;5069429;28;19912;-59
2022/07/01 13:01:46;;;;;;;;;;;21.50;76.90;;;;;;5068451;28;19912;-59
2022/07/01 13:04:11;;;;;;;;;;;21.60;76.50;;;;;;5067037;28;19923;-58
2022/07/01 13:06:37;;;;;;;;;;;21.70;75.90;;;;;;5069254;28;20285;-59
2022/07/01 13:09:03;;;;;;;;;;;21.70;74.40;;;;;;5067692;28;20015;-59
2022/07/01 13:11:28;;;;;;;;;;;21.60;74.40;;;;;;5069204;28;19916;-58
2022/07/01 13:13:54;;;;;;;;;;;21.60;74.50;;;;;;5068720;28;20385;-58
2022/07/01 13:16:19;;;;;;;;;;;21.60;72.60;;;;;;5066959;28;19921;-57
2022/07/01 13:18:45;;;;;;;;;;;21.50;71.80;;;;;;5067136;28;19962;-58
2022/07/01 13:21:10;;;;;;;;;;;21.40;71.50;;;;;;5068642;28;19966;-57
2022/07/01 13:23:36;;;;;;;;;;;21.30;72.40;;;;;;5068910;28;20004;-59
2022/07/01 13:26:01;;;;;;;;;;;21.40;73.50;;;;;;5068092;28;20580;-59
2022/07/01 13:28:27;;;;;;;;;;;21.40;73.20;;;;;;5069398;28;19912;-59
2022/07/01 13:30:52;;;;;;;;;;;21.50;73.80;;;;;;5068074;28;20492;-59
2022/07/01 13:33:17;;;;;;;;;;;21.50;74.20;;;;;;5067004;28;19917;-58
2022/07/01 13:35:43;;;;;;;;;;;21.60;73.00;;;;;;5069731;28;20004;-64
2022/07/01 13:38:08;;;;;;;;;;;21.70;74.50;;;;;;5068320;28;19916;-60
2022/07/01 13:40:34;;;;;;;;;;;21.70;74.00;;;;;;5068306;28;20372;-66
2022/07/01 13:42:59;;;;;;;;;;;21.90;74.60;;;;;;5068067;28;19917;-63
2022/07/01 13:45:25;;;;;;;;;;;22.00;74.60;;;;;;5067762;28;20016;-67
2022/07/01 13:47:50;;;;;;;;;;;22.10;74.50;;;;;;5067776;28;19932;-65
2022/07/01 13:50:18;;;;;;;;;;;22.20;73.90;;;;;;5068595;28;19912;-65
2022/07/01 13:52:45;;;;;;;;;;;22.20;73.70;;;;;;5066171;28;20021;-65
2022/07/01 13:55:10;;;;;;;;;;;22.30;72.40;;;;;;5068299;28;20011;-65
2022/07/01 13:57:36;;;;;;;;;;;22.30;73.90;;;;;;5044881;28;19996;-64
2022/07/01 14:00:02;;;;;;;;;;;22.40;73.80;;;;;;5068266;28;19912;-66
2022/07/01 14:02:27;;;;;;;;;;;22.50;74.20;;;;;;5066597;28;19912;-66
2022/07/01 14:04:53;;;;;;;;;;;22.60;73.30;;;;;;5070016;28;20411;-66
2022/07/01 14:07:18;;;;;;;;;;;22.50;70.00;;;;;;5072049;28;19916;-66
2022/07/01 14:09:44;;;;;;;;;;;22.40;71.10;;;;;;5069492;28;19952;-66
2022/07/01 14:12:10;;;;;;;;;;;22.30;70.10;;;;;;5071886;28;19970;-67
2022/07/01 14:14:35;;;;;;;;;;;22.20;70.70;;;;;;5072293;28;19917;-66
2022/07/01 14:17:01;;;;;;;;;;;22.20;70.00;;;;;;5072014;28;20403;-67
2022/07/01 14:19:27;;;;;;;;;;;22.20;69.30;;;;;;5067406;28;19912;-66
2022/07/01 14:21:54;;;;;;;;;;;22.20;71.10;;;;;;5072718;28;19916;-66
2022/07/01 14:24:20;;;;;;;;;;;22.20;68.80;;;;;;5072415;28;20444;-65